sensor_id;sensor_type;location;lat;lon;timestamp;P1;durP1;ratioP1;P2;durP2;ratioP2
20241;SDS011;10279;46.388;8.116;2022-10-16T00:00:57;1.60;;;0.37;;
20241;SDS011;10279;46.388;8.116;2022-10-16T00:03:25;0.50;;;0.50;;
20241;SDS011;10279;46.388;8.116;2022-10-16T00:05:58;1.10;;;0.57;;
20241;SDS011;10279;46.388;8.116;2022-10-16T00:08:26;1.90;;;0.33;;
20241;SDS011;10279;46.388;8.116;2022-10-16T00:11:04;0.40;;;0.40;;
20241;SDS011;10279;46.388;8.116;2022-10-16T00:13:32;0.30;;;0.30;;
20241;SDS011;10279;46.388;8.116;2022-10-16T00:16:00;1.07;;;0.40;;
20241;SDS011;10279;46.388;8.116;2022-10-16T00:18:28;0.30;;;0.30;;
20241;SDS011;10279;46.388;8.116;2022-10-16T00:20:56;0.40;;;0.40;;
20241;SDS011;10279;46.388;8.116;2022-10-16T00:23:28;0.40;;;0.40;;
20241;SDS011;10279;46.388;8.116;2022-10-16T00:25:56;2.17;;;0.50;;
20241;SDS011;10279;46.388;8.116;2022-10-16T00:28:24;0.63;;;0.40;;
20241;SDS011;10279;46.388;8.116;2022-10-16T00:30:52;3.67;;;0.37;;
20241;SDS011;10279;46.388;8.116;2022-10-16T00:33:19;0.40;;;0.40;;
20241;SDS011;10279;46.388;8.116;2022-10-16T00:35:47;1.20;;;0.37;;
20241;SDS011;10279;46.388;8.116;2022-10-16T00:38:14;1.93;;;0.50;;
20241;SDS011;10279;46.388;8.116;2022-10-16T00:40:42;0.40;;;0.40;;
20241;SDS011;10279;46.388;8.116;2022-10-16T00:43:53;0.97;;;0.40;;
20241;SDS011;10279;46.388;8.116;2022-10-16T00:46:00;1.17;;;0.40;;
20241;SDS011;10279;46.388;8.116;2022-10-16T00:48:28;0.70;;;0.40;;
20241;SDS011;10279;46.388;8.116;2022-10-16T00:50:56;0.40;;;0.40;;
20241;SDS011;10279;46.388;8.116;2022-10-16T00:53:24;1.33;;;0.43;;
20241;SDS011;10279;46.388;8.116;2022-10-16T00:55:55;0.83;;;0.43;;
20241;SDS011;10279;46.388;8.116;2022-10-16T00:58:23;1.80;;;0.50;;
20241;SDS011;10279;46.388;8.116;2022-10-16T01:00:50;3.10;;;0.33;;
20241;SDS011;10279;46.388;8.116;2022-10-16T01:03:31;1.90;;;0.40;;
20241;SDS011;10279;46.388;8.116;2022-10-16T01:08:53;2.90;;;0.33;;
20241;SDS011;10279;46.388;8.116;2022-10-16T01:11:27;0.77;;;0.40;;
20241;SDS011;10279;46.388;8.116;2022-10-16T01:14:00;0.30;;;0.30;;
20241;SDS011;10279;46.388;8.116;2022-10-16T01:16:32;0.40;;;0.40;;
20241;SDS011;10279;46.388;8.116;2022-10-16T01:19:08;0.40;;;0.40;;
20241;SDS011;10279;46.388;8.116;2022-10-16T01:21:38;0.40;;;0.40;;
20241;SDS011;10279;46.388;8.116;2022-10-16T01:31:33;1.03;;;0.40;;
20241;SDS011;10279;46.388;8.116;2022-10-16T01:34:03;1.23;;;0.40;;
20241;SDS011;10279;46.388;8.116;2022-10-16T01:39:29;1.33;;;0.30;;
20241;SDS011;10279;46.388;8.116;2022-10-16T01:42:13;0.40;;;0.40;;
20241;SDS011;10279;46.388;8.116;2022-10-16T01:44:42;0.73;;;0.50;;
20241;SDS011;10279;46.388;8.116;2022-10-16T01:47:10;0.73;;;0.40;;
20241;SDS011;10279;46.388;8.116;2022-10-16T01:49:40;2.17;;;0.50;;
20241;SDS011;10279;46.388;8.116;2022-10-16T01:52:09;1.80;;;0.30;;
20241;SDS011;10279;46.388;8.116;2022-10-16T01:54:38;0.70;;;0.30;;
20241;SDS011;10279;46.388;8.116;2022-10-16T01:57:07;0.30;;;0.30;;
20241;SDS011;10279;46.388;8.116;2022-10-16T01:59:36;1.70;;;0.40;;
20241;SDS011;10279;46.388;8.116;2022-10-16T02:02:06;0.40;;;0.40;;
20241;SDS011;10279;46.388;8.116;2022-10-16T02:04:36;0.90;;;0.33;;
20241;SDS011;10279;46.388;8.116;2022-10-16T02:07:05;0.40;;;0.40;;
20241;SDS011;10279;46.388;8.116;2022-10-16T02:09:33;1.93;;;0.43;;
20241;SDS011;10279;46.388;8.116;2022-10-16T02:12:03;0.50;;;0.50;;
20241;SDS011;10279;46.388;8.116;2022-10-16T02:14:32;0.50;;;0.30;;
20241;SDS011;10279;46.388;8.116;2022-10-16T02:16:59;0.40;;;0.40;;
20241;SDS011;10279;46.388;8.116;2022-10-16T02:19:30;0.93;;;0.43;;
20241;SDS011;10279;46.388;8.116;2022-10-16T02:21:59;0.30;;;0.30;;
20241;SDS011;10279;46.388;8.116;2022-10-16T02:24:38;2.93;;;0.50;;
20241;SDS011;10279;46.388;8.116;2022-10-16T02:29:56;0.70;;;0.40;;
20241;SDS011;10279;46.388;8.116;2022-10-16T02:32:28;1.30;;;0.30;;
20241;SDS011;10279;46.388;8.116;2022-10-16T02:34:57;1.80;;;0.67;;
20241;SDS011;10279;46.388;8.116;2022-10-16T02:37:25;0.80;;;0.40;;
20241;SDS011;10279;46.388;8.116;2022-10-16T02:39:54;0.73;;;0.30;;
20241;SDS011;10279;46.388;8.116;2022-10-16T02:42:26;0.50;;;0.50;;
20241;SDS011;10279;46.388;8.116;2022-10-16T02:44:54;6.30;;;0.60;;
20241;SDS011;10279;46.388;8.116;2022-10-16T02:47:22;0.43;;;0.40;;
20241;SDS011;10279;46.388;8.116;2022-10-16T02:49:49;0.67;;;0.50;;
20241;SDS011;10279;46.388;8.116;2022-10-16T02:52:16;0.40;;;0.40;;
20241;SDS011;10279;46.388;8.116;2022-10-16T02:54:44;0.33;;;0.30;;
20241;SDS011;10279;46.388;8.116;2022-10-16T02:57:11;0.83;;;0.30;;
20241;SDS011;10279;46.388;8.116;2022-10-16T02:59:39;0.77;;;0.60;;
20241;SDS011;10279;46.388;8.116;2022-10-16T03:02:06;0.63;;;0.50;;
20241;SDS011;10279;46.388;8.116;2022-10-16T03:04:33;0.83;;;0.60;;
20241;SDS011;10279;46.388;8.116;2022-10-16T03:07:01;0.70;;;0.70;;
20241;SDS011;10279;46.388;8.116;2022-10-16T03:09:28;1.67;;;0.60;;
20241;SDS011;10279;46.388;8.116;2022-10-16T03:11:56;0.77;;;0.40;;
20241;SDS011;10279;46.388;8.116;2022-10-16T03:14:23;2.93;;;0.40;;
20241;SDS011;10279;46.388;8.116;2022-10-16T03:16:51;0.97;;;0.50;;
20241;SDS011;10279;46.388;8.116;2022-10-16T03:19:18;1.70;;;0.50;;
20241;SDS011;10279;46.388;8.116;2022-10-16T03:21:46;0.30;;;0.30;;
20241;SDS011;10279;46.388;8.116;2022-10-16T03:24:13;0.80;;;0.53;;
20241;SDS011;10279;46.388;8.116;2022-10-16T03:26:41;0.70;;;0.70;;
20241;SDS011;10279;46.388;8.116;2022-10-16T03:29:08;0.77;;;0.50;;
20241;SDS011;10279;46.388;8.116;2022-10-16T03:31:39;4.00;;;0.60;;
20241;SDS011;10279;46.388;8.116;2022-10-16T03:34:07;1.70;;;0.30;;
20241;SDS011;10279;46.388;8.116;2022-10-16T03:36:34;0.30;;;0.30;;
20241;SDS011;10279;46.388;8.116;2022-10-16T03:39:02;1.37;;;0.33;;
20241;SDS011;10279;46.388;8.116;2022-10-16T03:41:29;0.30;;;0.30;;
20241;SDS011;10279;46.388;8.116;2022-10-16T03:43:57;1.73;;;0.40;;
20241;SDS011;10279;46.388;8.116;2022-10-16T03:46:24;0.50;;;0.40;;
20241;SDS011;10279;46.388;8.116;2022-10-16T03:48:51;1.27;;;0.50;;
20241;SDS011;10279;46.388;8.116;2022-10-16T03:51:22;0.60;;;0.60;;
20241;SDS011;10279;46.388;8.116;2022-10-16T03:53:49;0.40;;;0.40;;
20241;SDS011;10279;46.388;8.116;2022-10-16T03:56:17;1.90;;;0.50;;
20241;SDS011;10279;46.388;8.116;2022-10-16T03:58:45;0.50;;;0.50;;
20241;SDS011;10279;46.388;8.116;2022-10-16T04:01:12;0.50;;;0.50;;
20241;SDS011;10279;46.388;8.116;2022-10-16T04:03:39;0.53;;;0.53;;
20241;SDS011;10279;46.388;8.116;2022-10-16T04:06:07;0.40;;;0.40;;
20241;SDS011;10279;46.388;8.116;2022-10-16T04:08:35;0.40;;;0.40;;
20241;SDS011;10279;46.388;8.116;2022-10-16T04:11:03;1.50;;;0.47;;
20241;SDS011;10279;46.388;8.116;2022-10-16T04:13:30;0.37;;;0.33;;
20241;SDS011;10279;46.388;8.116;2022-10-16T04:15:57;0.30;;;0.30;;
20241;SDS011;10279;46.388;8.116;2022-10-16T04:18:25;1.07;;;0.43;;
20241;SDS011;10279;46.388;8.116;2022-10-16T04:20:53;0.60;;;0.60;;
20241;SDS011;10279;46.388;8.116;2022-10-16T04:23:21;1.37;;;0.40;;
20241;SDS011;10279;46.388;8.116;2022-10-16T04:25:50;0.63;;;0.50;;
20241;SDS011;10279;46.388;8.116;2022-10-16T04:28:17;1.63;;;0.47;;
20241;SDS011;10279;46.388;8.116;2022-10-16T04:30:45;4.73;;;0.50;;
20241;SDS011;10279;46.388;8.116;2022-10-16T04:33:12;3.60;;;0.93;;
20241;SDS011;10279;46.388;8.116;2022-10-16T04:35:39;1.37;;;0.60;;
20241;SDS011;10279;46.388;8.116;2022-10-16T04:38:07;0.80;;;0.50;;
20241;SDS011;10279;46.388;8.116;2022-10-16T04:40:34;1.67;;;0.70;;
20241;SDS011;10279;46.388;8.116;2022-10-16T04:43:03;1.47;;;0.50;;
20241;SDS011;10279;46.388;8.116;2022-10-16T04:45:31;0.80;;;0.50;;
20241;SDS011;10279;46.388;8.116;2022-10-16T04:47:58;1.23;;;0.53;;
20241;SDS011;10279;46.388;8.116;2022-10-16T04:50:26;0.77;;;0.50;;
20241;SDS011;10279;46.388;8.116;2022-10-16T04:52:54;1.07;;;0.40;;
20241;SDS011;10279;46.388;8.116;2022-10-16T04:55:21;1.33;;;0.50;;
20241;SDS011;10279;46.388;8.116;2022-10-16T04:57:48;0.73;;;0.70;;
20241;SDS011;10279;46.388;8.116;2022-10-16T05:00:16;0.50;;;0.50;;
20241;SDS011;10279;46.388;8.116;2022-10-16T05:02:43;0.50;;;0.40;;
20241;SDS011;10279;46.388;8.116;2022-10-16T05:05:11;0.40;;;0.40;;
20241;SDS011;10279;46.388;8.116;2022-10-16T05:07:41;0.90;;;0.50;;
20241;SDS011;10279;46.388;8.116;2022-10-16T05:10:09;0.57;;;0.40;;
20241;SDS011;10279;46.388;8.116;2022-10-16T05:12:36;2.50;;;0.60;;
20241;SDS011;10279;46.388;8.116;2022-10-16T05:15:04;0.63;;;0.40;;
20241;SDS011;10279;46.388;8.116;2022-10-16T05:17:31;2.53;;;0.40;;
20241;SDS011;10279;46.388;8.116;2022-10-16T05:19:59;1.27;;;0.50;;
20241;SDS011;10279;46.388;8.116;2022-10-16T05:22:26;2.30;;;0.77;;
20241;SDS011;10279;46.388;8.116;2022-10-16T05:24:53;0.50;;;0.50;;
20241;SDS011;10279;46.388;8.116;2022-10-16T05:27:21;2.83;;;0.70;;
20241;SDS011;10279;46.388;8.116;2022-10-16T05:29:49;3.00;;;0.30;;
20241;SDS011;10279;46.388;8.116;2022-10-16T05:32:16;0.40;;;0.40;;
20241;SDS011;10279;46.388;8.116;2022-10-16T05:34:44;1.43;;;0.80;;
20241;SDS011;10279;46.388;8.116;2022-10-16T05:37:12;1.80;;;0.60;;
20241;SDS011;10279;46.388;8.116;2022-10-16T05:39:43;2.10;;;0.77;;
20241;SDS011;10279;46.388;8.116;2022-10-16T05:42:10;1.23;;;0.50;;
20241;SDS011;10279;46.388;8.116;2022-10-16T05:44:37;1.20;;;0.60;;
20241;SDS011;10279;46.388;8.116;2022-10-16T05:47:05;3.70;;;0.90;;
20241;SDS011;10279;46.388;8.116;2022-10-16T05:49:32;0.50;;;0.50;;
20241;SDS011;10279;46.388;8.116;2022-10-16T05:52:05;1.17;;;0.77;;
20241;SDS011;10279;46.388;8.116;2022-10-16T05:54:33;0.60;;;0.60;;
20241;SDS011;10279;46.388;8.116;2022-10-16T05:57:00;2.23;;;0.70;;
20241;SDS011;10279;46.388;8.116;2022-10-16T05:59:28;2.90;;;0.70;;
20241;SDS011;10279;46.388;8.116;2022-10-16T06:01:55;1.00;;;0.60;;
20241;SDS011;10279;46.388;8.116;2022-10-16T06:04:23;1.30;;;0.60;;
20241;SDS011;10279;46.388;8.116;2022-10-16T06:06:50;0.50;;;0.50;;
20241;SDS011;10279;46.388;8.116;2022-10-16T06:09:18;0.60;;;0.60;;
20241;SDS011;10279;46.388;8.116;2022-10-16T06:11:45;1.13;;;1.03;;
20241;SDS011;10279;46.388;8.116;2022-10-16T06:14:12;0.80;;;0.70;;
20241;SDS011;10279;46.388;8.116;2022-10-16T06:16:40;1.13;;;0.60;;
20241;SDS011;10279;46.388;8.116;2022-10-16T06:19:07;0.60;;;0.60;;
20241;SDS011;10279;46.388;8.116;2022-10-16T06:21:35;0.80;;;0.70;;
20241;SDS011;10279;46.388;8.116;2022-10-16T06:24:03;0.90;;;0.70;;
20241;SDS011;10279;46.388;8.116;2022-10-16T06:26:30;1.60;;;0.63;;
20241;SDS011;10279;46.388;8.116;2022-10-16T06:28:58;0.60;;;0.50;;
20241;SDS011;10279;46.388;8.116;2022-10-16T06:31:26;1.03;;;0.80;;
20241;SDS011;10279;46.388;8.116;2022-10-16T06:33:57;3.17;;;0.70;;
20241;SDS011;10279;46.388;8.116;2022-10-16T06:36:24;1.10;;;0.70;;
20241;SDS011;10279;46.388;8.116;2022-10-16T06:38:52;3.77;;;0.90;;
20241;SDS011;10279;46.388;8.116;2022-10-16T06:41:20;1.23;;;0.60;;
20241;SDS011;10279;46.388;8.116;2022-10-16T06:43:48;0.77;;;0.77;;
20241;SDS011;10279;46.388;8.116;2022-10-16T06:46:17;2.30;;;1.50;;
20241;SDS011;10279;46.388;8.116;2022-10-16T06:48:44;4.90;;;2.17;;
20241;SDS011;10279;46.388;8.116;2022-10-16T06:51:13;1.27;;;1.17;;
20241;SDS011;10279;46.388;8.116;2022-10-16T06:53:45;1.83;;;0.90;;
20241;SDS011;10279;46.388;8.116;2022-10-16T06:56:28;0.80;;;0.77;;
20241;SDS011;10279;46.388;8.116;2022-10-16T06:58:59;1.47;;;0.80;;
20241;SDS011;10279;46.388;8.116;2022-10-16T07:01:27;2.40;;;0.60;;
20241;SDS011;10279;46.388;8.116;2022-10-16T07:03:54;0.97;;;0.50;;
20241;SDS011;10279;46.388;8.116;2022-10-16T07:06:22;5.70;;;1.13;;
20241;SDS011;10279;46.388;8.116;2022-10-16T07:08:50;1.80;;;0.63;;
20241;SDS011;10279;46.388;8.116;2022-10-16T07:11:19;1.13;;;0.67;;
20241;SDS011;10279;46.388;8.116;2022-10-16T07:13:50;1.30;;;0.90;;
20241;SDS011;10279;46.388;8.116;2022-10-16T07:16:28;3.53;;;1.03;;
20241;SDS011;10279;46.388;8.116;2022-10-16T07:18:59;1.73;;;0.60;;
20241;SDS011;10279;46.388;8.116;2022-10-16T07:21:28;0.90;;;0.90;;
20241;SDS011;10279;46.388;8.116;2022-10-16T07:23:57;0.73;;;0.70;;
20241;SDS011;10279;46.388;8.116;2022-10-16T07:26:25;1.23;;;0.70;;
20241;SDS011;10279;46.388;8.116;2022-10-16T07:28:53;1.53;;;0.60;;
20241;SDS011;10279;46.388;8.116;2022-10-16T07:31:20;0.70;;;0.70;;
20241;SDS011;10279;46.388;8.116;2022-10-16T07:33:49;2.33;;;0.90;;
20241;SDS011;10279;46.388;8.116;2022-10-16T07:36:17;0.80;;;0.70;;
20241;SDS011;10279;46.388;8.116;2022-10-16T07:38:45;0.70;;;0.70;;
20241;SDS011;10279;46.388;8.116;2022-10-16T07:41:13;3.70;;;0.70;;
20241;SDS011;10279;46.388;8.116;2022-10-16T07:43:45;1.83;;;0.70;;
20241;SDS011;10279;46.388;8.116;2022-10-16T07:46:13;0.60;;;0.60;;
20241;SDS011;10279;46.388;8.116;2022-10-16T07:48:40;0.60;;;0.60;;
20241;SDS011;10279;46.388;8.116;2022-10-16T07:51:12;0.60;;;0.60;;
20241;SDS011;10279;46.388;8.116;2022-10-16T07:53:40;1.10;;;0.57;;
20241;SDS011;10279;46.388;8.116;2022-10-16T07:56:08;0.83;;;0.60;;
20241;SDS011;10279;46.388;8.116;2022-10-16T07:58:35;1.57;;;0.70;;
20241;SDS011;10279;46.388;8.116;2022-10-16T08:01:04;2.67;;;0.70;;
20241;SDS011;10279;46.388;8.116;2022-10-16T08:03:32;2.10;;;0.83;;
20241;SDS011;10279;46.388;8.116;2022-10-16T08:06:00;1.20;;;0.70;;
20241;SDS011;10279;46.388;8.116;2022-10-16T08:08:28;0.80;;;0.70;;
20241;SDS011;10279;46.388;8.116;2022-10-16T08:10:55;2.50;;;0.60;;
20241;SDS011;10279;46.388;8.116;2022-10-16T08:13:23;1.27;;;0.80;;
20241;SDS011;10279;46.388;8.116;2022-10-16T08:15:50;5.87;;;2.60;;
20241;SDS011;10279;46.388;8.116;2022-10-16T08:18:18;3.60;;;2.07;;
20241;SDS011;10279;46.388;8.116;2022-10-16T08:20:45;1.38;;;1.15;;
20241;SDS011;10279;46.388;8.116;2022-10-16T08:23:12;2.33;;;1.83;;
20241;SDS011;10279;46.388;8.116;2022-10-16T08:25:40;2.03;;;1.75;;
20241;SDS011;10279;46.388;8.116;2022-10-16T08:28:09;1.37;;;1.27;;
20241;SDS011;10279;46.388;8.116;2022-10-16T08:30:37;0.73;;;0.73;;
20241;SDS011;10279;46.388;8.116;2022-10-16T08:33:05;0.90;;;0.80;;
20241;SDS011;10279;46.388;8.116;2022-10-16T08:35:33;1.77;;;0.52;;
20241;SDS011;10279;46.388;8.116;2022-10-16T08:38:02;2.40;;;0.90;;
20241;SDS011;10279;46.388;8.116;2022-10-16T08:40:30;1.15;;;0.60;;
20241;SDS011;10279;46.388;8.116;2022-10-16T08:43:03;2.15;;;0.77;;
20241;SDS011;10279;46.388;8.116;2022-10-16T08:46:20;0.77;;;0.75;;
20241;SDS011;10279;46.388;8.116;2022-10-16T08:51:11;1.42;;;0.55;;
20241;SDS011;10279;46.388;8.116;2022-10-16T08:53:47;0.55;;;0.55;;
20241;SDS011;10279;46.388;8.116;2022-10-16T08:56:15;0.80;;;0.80;;
20241;SDS011;10279;46.388;8.116;2022-10-16T08:58:45;0.52;;;0.52;;
20241;SDS011;10279;46.388;8.116;2022-10-16T09:01:21;1.63;;;0.70;;
20241;SDS011;10279;46.388;8.116;2022-10-16T09:06:38;0.52;;;0.52;;
20241;SDS011;10279;46.388;8.116;2022-10-16T09:20:18;0.85;;;0.85;;
20241;SDS011;10279;46.388;8.116;2022-10-16T09:22:46;0.68;;;0.68;;
20241;SDS011;10279;46.388;8.116;2022-10-16T09:25:14;1.45;;;0.88;;
20241;SDS011;10279;46.388;8.116;2022-10-16T09:27:44;3.40;;;1.00;;
20241;SDS011;10279;46.388;8.116;2022-10-16T09:30:16;1.08;;;0.70;;
20241;SDS011;10279;46.388;8.116;2022-10-16T09:32:45;3.22;;;0.90;;
20241;SDS011;10279;46.388;8.116;2022-10-16T09:35:14;0.88;;;0.70;;
20241;SDS011;10279;46.388;8.116;2022-10-16T09:37:43;0.90;;;0.90;;
20241;SDS011;10279;46.388;8.116;2022-10-16T09:40:12;0.77;;;0.70;;
20241;SDS011;10279;46.388;8.116;2022-10-16T09:42:39;0.70;;;0.70;;
20241;SDS011;10279;46.388;8.116;2022-10-16T09:45:19;2.70;;;0.80;;
20241;SDS011;10279;46.388;8.116;2022-10-16T09:47:49;0.70;;;0.70;;
20241;SDS011;10279;46.388;8.116;2022-10-16T09:50:24;0.70;;;0.70;;
20241;SDS011;10279;46.388;8.116;2022-10-16T09:53:05;0.70;;;0.70;;
20241;SDS011;10279;46.388;8.116;2022-10-16T09:55:33;0.60;;;0.60;;
20241;SDS011;10279;46.388;8.116;2022-10-16T09:58:00;0.75;;;0.73;;
20241;SDS011;10279;46.388;8.116;2022-10-16T10:00:27;1.23;;;1.10;;
20241;SDS011;10279;46.388;8.116;2022-10-16T10:02:56;0.70;;;0.70;;
20241;SDS011;10279;46.388;8.116;2022-10-16T10:05:27;0.88;;;0.88;;
20241;SDS011;10279;46.388;8.116;2022-10-16T10:10:26;1.15;;;1.05;;
20241;SDS011;10279;46.388;8.116;2022-10-16T10:12:54;1.20;;;0.98;;
20241;SDS011;10279;46.388;8.116;2022-10-16T10:15:21;1.08;;;0.88;;
20241;SDS011;10279;46.388;8.116;2022-10-16T10:17:51;0.95;;;0.90;;
20241;SDS011;10279;46.388;8.116;2022-10-16T10:22:52;0.88;;;0.88;;
20241;SDS011;10279;46.388;8.116;2022-10-16T10:30:42;1.20;;;1.10;;
20241;SDS011;10279;46.388;8.116;2022-10-16T10:38:41;0.90;;;0.90;;
20241;SDS011;10279;46.388;8.116;2022-10-16T10:46:51;0.98;;;0.90;;
20241;SDS011;10279;46.388;8.116;2022-10-16T10:52:07;0.73;;;0.73;;
20241;SDS011;10279;46.388;8.116;2022-10-16T10:54:47;0.70;;;0.70;;
20241;SDS011;10279;46.388;8.116;2022-10-16T11:00:06;1.02;;;0.73;;
20241;SDS011;10279;46.388;8.116;2022-10-16T11:03:07;0.70;;;0.70;;
20241;SDS011;10279;46.388;8.116;2022-10-16T11:05:40;1.00;;;0.90;;
20241;SDS011;10279;46.388;8.116;2022-10-16T11:08:31;1.00;;;0.93;;
20241;SDS011;10279;46.388;8.116;2022-10-16T11:11:00;0.90;;;0.90;;
20241;SDS011;10279;46.388;8.116;2022-10-16T11:13:44;0.80;;;0.80;;
20241;SDS011;10279;46.388;8.116;2022-10-16T11:16:58;0.80;;;0.80;;
20241;SDS011;10279;46.388;8.116;2022-10-16T11:19:10;0.85;;;0.85;;
20241;SDS011;10279;46.388;8.116;2022-10-16T11:21:42;1.38;;;1.27;;
20241;SDS011;10279;46.388;8.116;2022-10-16T11:24:23;1.20;;;1.10;;
20241;SDS011;10279;46.388;8.116;2022-10-16T11:26:57;1.20;;;1.10;;
20241;SDS011;10279;46.388;8.116;2022-10-16T11:29:29;1.75;;;1.00;;
20241;SDS011;10279;46.388;8.116;2022-10-16T11:32:04;2.22;;;1.17;;
20241;SDS011;10279;46.388;8.116;2022-10-16T11:34:36;1.20;;;1.10;;
20241;SDS011;10279;46.388;8.116;2022-10-16T11:37:17;1.48;;;1.38;;
20241;SDS011;10279;46.388;8.116;2022-10-16T11:39:46;1.40;;;1.10;;
20241;SDS011;10279;46.388;8.116;2022-10-16T11:42:23;2.47;;;1.40;;
20241;SDS011;10279;46.388;8.116;2022-10-16T11:44:55;1.20;;;1.10;;
20241;SDS011;10279;46.388;8.116;2022-10-16T11:55:31;2.05;;;1.40;;
20241;SDS011;10279;46.388;8.116;2022-10-16T11:58:05;3.45;;;2.28;;
20241;SDS011;10279;46.388;8.116;2022-10-16T12:00:47;4.07;;;3.00;;
20241;SDS011;10279;46.388;8.116;2022-10-16T12:08:19;1.52;;;1.42;;
20241;SDS011;10279;46.388;8.116;2022-10-16T12:10:47;1.48;;;1.38;;
20241;SDS011;10279;46.388;8.116;2022-10-16T12:16:04;3.35;;;1.35;;
20241;SDS011;10279;46.388;8.116;2022-10-16T12:18:32;1.98;;;1.40;;
20241;SDS011;10279;46.388;8.116;2022-10-16T12:20:59;1.52;;;1.42;;
20241;SDS011;10279;46.388;8.116;2022-10-16T12:23:32;2.05;;;1.30;;
20241;SDS011;10279;46.388;8.116;2022-10-16T12:26:00;1.25;;;1.15;;
20241;SDS011;10279;46.388;8.116;2022-10-16T12:28:29;1.30;;;1.20;;
20241;SDS011;10279;46.388;8.116;2022-10-16T12:33:29;1.40;;;1.30;;
20241;SDS011;10279;46.388;8.116;2022-10-16T12:35:58;1.65;;;1.40;;
20241;SDS011;10279;46.388;8.116;2022-10-16T12:38:26;1.73;;;1.30;;
20241;SDS011;10279;46.388;8.116;2022-10-16T12:41:01;1.40;;;1.30;;
20241;SDS011;10279;46.388;8.116;2022-10-16T12:48:37;1.40;;;1.30;;
20241;SDS011;10279;46.388;8.116;2022-10-16T12:51:33;1.23;;;1.10;;
20241;SDS011;10279;46.388;8.116;2022-10-16T13:04:41;1.20;;;1.10;;
20241;SDS011;10279;46.388;8.116;2022-10-16T13:14:44;1.45;;;1.20;;
20241;SDS011;10279;46.388;8.116;2022-10-16T13:22:41;1.73;;;1.30;;
20241;SDS011;10279;46.388;8.116;2022-10-16T13:30:16;1.75;;;1.65;;
20241;SDS011;10279;46.388;8.116;2022-10-16T13:32:45;1.85;;;1.45;;
20241;SDS011;10279;46.388;8.116;2022-10-16T13:35:21;1.30;;;1.20;;
20241;SDS011;10279;46.388;8.116;2022-10-16T13:37:49;1.55;;;1.45;;
20241;SDS011;10279;46.388;8.116;2022-10-16T13:42:46;1.75;;;1.65;;
20241;SDS011;10279;46.388;8.116;2022-10-16T13:45:18;1.95;;;1.70;;
20241;SDS011;10279;46.388;8.116;2022-10-16T13:47:46;1.80;;;1.70;;
20241;SDS011;10279;46.388;8.116;2022-10-16T13:50:14;1.67;;;1.58;;
20241;SDS011;10279;46.388;8.116;2022-10-16T13:52:49;1.70;;;1.60;;
20241;SDS011;10279;46.388;8.116;2022-10-16T13:55:32;1.65;;;1.55;;
20241;SDS011;10279;46.388;8.116;2022-10-16T13:58:10;3.80;;;1.70;;
20241;SDS011;10279;46.388;8.116;2022-10-16T14:00:39;2.25;;;1.60;;
20241;SDS011;10279;46.388;8.116;2022-10-16T14:03:11;1.92;;;1.83;;
20241;SDS011;10279;46.388;8.116;2022-10-16T14:05:45;1.48;;;1.38;;
20241;SDS011;10279;46.388;8.116;2022-10-16T14:08:14;1.60;;;1.50;;
20241;SDS011;10279;46.388;8.116;2022-10-16T14:10:42;1.60;;;1.50;;
20241;SDS011;10279;46.388;8.116;2022-10-16T14:13:12;1.67;;;1.58;;
20241;SDS011;10279;46.388;8.116;2022-10-16T14:15:45;1.90;;;1.67;;
20241;SDS011;10279;46.388;8.116;2022-10-16T14:18:15;2.95;;;1.90;;
20241;SDS011;10279;46.388;8.116;2022-10-16T14:20:45;2.08;;;1.88;;
20241;SDS011;10279;46.388;8.116;2022-10-16T14:23:47;1.70;;;1.60;;
20241;SDS011;10279;46.388;8.116;2022-10-16T14:28:35;1.50;;;1.40;;
20241;SDS011;10279;46.388;8.116;2022-10-16T14:31:14;2.50;;;1.60;;
20241;SDS011;10279;46.388;8.116;2022-10-16T14:33:44;2.53;;;2.10;;
20241;SDS011;10279;46.388;8.116;2022-10-16T14:36:13;1.90;;;1.70;;
20241;SDS011;10279;46.388;8.116;2022-10-16T14:38:42;2.10;;;1.90;;
20241;SDS011;10279;46.388;8.116;2022-10-16T14:41:10;3.60;;;1.67;;
20241;SDS011;10279;46.388;8.116;2022-10-16T14:43:38;2.20;;;1.80;;
20241;SDS011;10279;46.388;8.116;2022-10-16T14:46:12;2.38;;;2.15;;
20241;SDS011;10279;46.388;8.116;2022-10-16T14:48:43;2.30;;;2.10;;
20241;SDS011;10279;46.388;8.116;2022-10-16T14:51:13;1.95;;;1.83;;
20241;SDS011;10279;46.388;8.116;2022-10-16T14:53:41;2.20;;;1.77;;
20241;SDS011;10279;46.388;8.116;2022-10-16T14:56:08;2.08;;;1.80;;
20241;SDS011;10279;46.388;8.116;2022-10-16T14:58:41;2.28;;;1.77;;
20241;SDS011;10279;46.388;8.116;2022-10-16T15:01:09;2.22;;;2.03;;
20241;SDS011;10279;46.388;8.116;2022-10-16T15:03:38;2.35;;;2.00;;
20241;SDS011;10279;46.388;8.116;2022-10-16T15:06:09;2.80;;;1.75;;
20241;SDS011;10279;46.388;8.116;2022-10-16T15:08:38;2.00;;;1.90;;
20241;SDS011;10279;46.388;8.116;2022-10-16T15:11:08;1.98;;;1.77;;
20241;SDS011;10279;46.388;8.116;2022-10-16T15:13:37;2.15;;;1.88;;
20241;SDS011;10279;46.388;8.116;2022-10-16T15:16:04;2.00;;;1.90;;
20241;SDS011;10279;46.388;8.116;2022-10-16T15:18:32;3.72;;;2.38;;
20241;SDS011;10279;46.388;8.116;2022-10-16T15:20:59;4.10;;;2.45;;
20241;SDS011;10279;46.388;8.116;2022-10-16T15:23:26;5.85;;;2.35;;
20241;SDS011;10279;46.388;8.116;2022-10-16T15:25:55;2.38;;;2.17;;
20241;SDS011;10279;46.388;8.116;2022-10-16T15:28:23;2.45;;;2.25;;
20241;SDS011;10279;46.388;8.116;2022-10-16T15:30:53;2.65;;;2.17;;
20241;SDS011;10279;46.388;8.116;2022-10-16T15:33:22;2.97;;;2.00;;
20241;SDS011;10279;46.388;8.116;2022-10-16T15:35:50;2.45;;;1.92;;
20241;SDS011;10279;46.388;8.116;2022-10-16T15:38:18;4.18;;;2.85;;
20241;SDS011;10279;46.388;8.116;2022-10-16T15:40:46;2.15;;;1.95;;
20241;SDS011;10279;46.388;8.116;2022-10-16T15:43:14;2.17;;;1.98;;
20241;SDS011;10279;46.388;8.116;2022-10-16T15:45:41;2.80;;;2.17;;
20241;SDS011;10279;46.388;8.116;2022-10-16T15:48:12;2.45;;;2.25;;
20241;SDS011;10279;46.388;8.116;2022-10-16T15:50:40;2.67;;;2.30;;
20241;SDS011;10279;46.388;8.116;2022-10-16T15:53:09;2.40;;;2.20;;
20241;SDS011;10279;46.388;8.116;2022-10-16T15:55:37;3.20;;;2.35;;
20241;SDS011;10279;46.388;8.116;2022-10-16T15:58:04;2.15;;;2.00;;
20241;SDS011;10279;46.388;8.116;2022-10-16T16:00:32;3.08;;;2.65;;
20241;SDS011;10279;46.388;8.116;2022-10-16T16:02:59;2.50;;;2.30;;
20241;SDS011;10279;46.388;8.116;2022-10-16T16:05:27;3.50;;;2.20;;
20241;SDS011;10279;46.388;8.116;2022-10-16T16:07:57;3.20;;;2.65;;
20241;SDS011;10279;46.388;8.116;2022-10-16T16:10:25;2.42;;;2.22;;
20241;SDS011;10279;46.388;8.116;2022-10-16T16:12:52;2.60;;;2.40;;
20241;SDS011;10279;46.388;8.116;2022-10-16T16:15:20;2.55;;;2.17;;
20241;SDS011;10279;46.388;8.116;2022-10-16T16:17:48;2.65;;;2.45;;
20241;SDS011;10279;46.388;8.116;2022-10-16T16:20:16;4.45;;;2.40;;
20241;SDS011;10279;46.388;8.116;2022-10-16T16:22:43;4.40;;;2.33;;
20241;SDS011;10279;46.388;8.116;2022-10-16T16:25:10;2.90;;;2.60;;
20241;SDS011;10279;46.388;8.116;2022-10-16T16:27:38;2.95;;;2.40;;
20241;SDS011;10279;46.388;8.116;2022-10-16T16:30:06;2.67;;;2.15;;
20241;SDS011;10279;46.388;8.116;2022-10-16T16:32:34;2.90;;;2.20;;
20241;SDS011;10279;46.388;8.116;2022-10-16T16:35:02;2.40;;;2.20;;
20241;SDS011;10279;46.388;8.116;2022-10-16T16:37:30;2.92;;;1.85;;
20241;SDS011;10279;46.388;8.116;2022-10-16T16:40:00;2.78;;;2.35;;
20241;SDS011;10279;46.388;8.116;2022-10-16T16:42:28;2.60;;;2.40;;
20241;SDS011;10279;46.388;8.116;2022-10-16T16:44:55;2.83;;;2.60;;
20241;SDS011;10279;46.388;8.116;2022-10-16T16:47:23;2.55;;;2.35;;
20241;SDS011;10279;46.388;8.116;2022-10-16T16:49:51;3.30;;;2.08;;
20241;SDS011;10279;46.388;8.116;2022-10-16T16:52:18;3.33;;;2.30;;
20241;SDS011;10279;46.388;8.116;2022-10-16T16:54:47;2.42;;;2.10;;
20241;SDS011;10279;46.388;8.116;2022-10-16T16:57:19;4.75;;;2.55;;
20241;SDS011;10279;46.388;8.116;2022-10-16T16:59:46;7.82;;;3.17;;